Time;durP1;ratioP1;P1;durP2;ratioP2;P2;SDS_P1;SDS_P2;PMS_P1;PMS_P2;Temp;Humidity;BMP_temperature;BMP_pressure;BME280_temperature;BME280_humidity;BME280_pressure;Samples;Min_cycle;Max_cycle;Signal;HPM_P1;HPM_P2
2021/10/14 00:01:28;;;;;;;17.07;8.33;;;11.40;92.50;;;;;;5000772;28;20168;-73
2021/10/14 00:03:53;;;;;;;9.93;7.60;;;11.40;92.50;;;;;;5001334;28;20192;-73
2021/10/14 00:06:19;;;;;;;11.60;6.70;;;11.40;92.60;;;;;;4999263;28;20300;-73
2021/10/14 00:08:44;;;;;;;15.23;7.73;;;11.40;92.60;;;;;;4995670;28;20306;-73
2021/10/14 00:11:10;;;;;;;13.97;7.87;;;11.40;92.60;;;;;;4994736;28;20334;-74
2021/10/14 00:13:36;;;;;;;14.67;6.67;;;11.40;92.70;;;;;;4995054;28;20211;-73
2021/10/14 00:16:03;;;;;;;10.40;6.63;;;11.40;92.70;;;;;;4997141;28;20168;-72
2021/10/14 00:18:28;;;;;;;12.27;7.60;;;11.40;92.70;;;;;;5000213;28;20164;-73
2021/10/14 00:20:54;;;;;;;13.77;7.17;;;11.40;92.60;;;;;;5000065;28;20486;-72
2021/10/14 00:23:20;;;;;;;11.87;9.07;;;11.40;92.70;;;;;;4993625;28;20179;-73
2021/10/14 00:25:45;;;;;;;16.00;10.43;;;11.40;92.70;;;;;;4991950;28;20577;-73
2021/10/14 00:28:11;;;;;;;14.50;8.70;;;11.30;92.60;;;;;;4992480;28;20556;-74
2021/10/14 00:30:37;;;;;;;11.43;8.00;;;11.30;92.60;;;;;;4989588;28;20188;-73
2021/10/14 00:33:02;;;;;;;20.50;8.10;;;11.30;92.50;;;;;;4992068;28;20172;-73
2021/10/14 00:35:28;;;;;;;18.63;7.60;;;11.30;92.50;;;;;;4990143;28;20183;-73
2021/10/14 00:37:54;;;;;;;13.37;7.53;;;11.30;92.50;;;;;;4990335;28;20630;-73
2021/10/14 00:40:22;;;;;;;13.30;6.93;;;11.30;92.50;;;;;;4983992;28;20480;-74
2021/10/14 00:42:47;;;;;;;12.80;7.60;;;11.30;92.50;;;;;;4972829;28;20701;-73
2021/10/14 00:45:13;;;;;;;12.20;7.77;;;11.30;92.50;;;;;;4971418;28;20432;-72
2021/10/14 00:47:39;;;;;;;11.87;6.80;;;11.30;92.50;;;;;;4973183;28;20539;-74
2021/10/14 00:50:07;;;;;;;11.93;7.00;;;11.30;92.40;;;;;;4987175;28;20435;-73
2021/10/14 00:52:34;;;;;;;10.00;6.10;;;11.30;92.40;;;;;;4971436;28;20426;-73
2021/10/14 00:55:01;;;;;;;14.97;7.63;;;11.30;92.40;;;;;;4973896;28;20427;-73
2021/10/14 00:57:28;;;;;;;14.63;7.10;;;11.30;92.30;;;;;;4972066;28;20797;-73
2021/10/14 00:59:55;;;;;;;10.97;5.97;;;11.30;92.40;;;;;;4971495;28;20404;-73
2021/10/14 01:02:21;;;;;;;15.13;6.93;;;11.30;92.30;;;;;;4972031;28;20431;-73
2021/10/14 01:04:47;;;;;;;12.60;6.90;;;11.30;92.30;;;;;;4972123;28;20467;-72
2021/10/14 01:07:13;;;;;;;16.50;7.50;;;11.30;92.20;;;;;;4972271;28;20522;-73
2021/10/14 01:09:40;;;;;;;12.23;6.83;;;11.30;92.30;;;;;;4971753;28;20498;-75
2021/10/14 01:12:06;;;;;;;17.17;7.67;;;11.30;92.20;;;;;;4972258;28;20214;-74
2021/10/14 01:14:32;;;;;;;13.03;7.37;;;11.30;92.10;;;;;;4973127;28;20444;-73
2021/10/14 01:16:58;;;;;;;13.23;7.00;;;11.30;92.20;;;;;;4970716;28;20498;-73
2021/10/14 01:19:24;;;;;;;13.80;6.57;;;11.30;92.30;;;;;;4970685;28;20176;-74
2021/10/14 01:21:50;;;;;;;13.33;7.27;;;11.30;92.10;;;;;;4986445;28;20818;-73
2021/10/14 01:24:16;;;;;;;13.50;7.77;;;11.30;92.10;;;;;;4986499;28;20219;-73
2021/10/14 01:26:42;;;;;;;9.07;6.37;;;11.30;92.10;;;;;;4971885;28;20799;-73
2021/10/14 01:29:08;;;;;;;11.30;5.50;;;11.30;92.00;;;;;;4992704;28;20463;-74
2021/10/14 01:31:34;;;;;;;9.77;6.40;;;11.30;92.00;;;;;;4969594;28;20200;-74
2021/10/14 01:34:00;;;;;;;11.60;6.50;;;11.30;92.00;;;;;;4984203;28;20274;-73
2021/10/14 01:36:25;;;;;;;13.47;7.13;;;11.30;91.90;;;;;;4990851;28;20167;-72
2021/10/14 01:38:51;;;;;;;11.87;5.67;;;11.30;91.90;;;;;;4990705;28;20168;-73
2021/10/14 01:41:17;;;;;;;17.20;7.40;;;11.30;91.80;;;;;;4987452;28;20195;-73
2021/10/14 01:43:43;;;;;;;15.10;7.07;;;11.30;92.20;;;;;;4989479;28;20665;-73
2021/10/14 01:46:09;;;;;;;13.43;6.23;;;11.30;91.70;;;;;;4989197;28;20588;-74
2021/10/14 01:48:35;;;;;;;12.97;6.27;;;11.30;91.70;;;;;;4990806;28;20172;-72
2021/10/14 01:51:02;;;;;;;12.77;6.57;;;11.40;91.70;;;;;;4989036;28;20477;-73
2021/10/14 01:53:27;;;;;;;11.93;6.37;;;11.40;91.60;;;;;;4988306;28;20174;-74
2021/10/14 01:55:54;;;;;;;9.17;6.07;;;11.40;91.60;;;;;;4982878;28;20424;-73
2021/10/14 01:58:20;;;;;;;9.13;6.60;;;11.40;91.60;;;;;;4970364;28;20650;-72
2021/10/14 02:00:47;;;;;;;10.07;5.83;;;11.40;91.50;;;;;;4953632;28;20430;-73
2021/10/14 02:03:13;;;;;;;10.43;6.50;;;11.40;91.50;;;;;;4971217;28;20420;-73
2021/10/14 02:05:38;;;;;;;10.63;5.50;;;11.40;91.50;;;;;;4986011;28;20424;-73
2021/10/14 02:08:04;;;;;;;11.27;7.03;;;11.40;91.40;;;;;;4971188;28;20168;-72
2021/10/14 02:10:30;;;;;;;11.23;5.73;;;11.40;91.30;;;;;;4972579;28;20635;-72
2021/10/14 02:12:56;;;;;;;10.80;6.70;;;11.40;91.20;;;;;;4975234;28;20412;-72
2021/10/14 02:15:22;;;;;;;15.63;7.67;;;11.40;91.30;;;;;;4973680;28;20242;-73
2021/10/14 02:17:48;;;;;;;10.47;5.97;;;11.40;91.20;;;;;;4975123;28;20542;-73
2021/10/14 02:20:15;;;;;;;9.83;5.73;;;11.40;91.20;;;;;;4975151;28;20176;-72
2021/10/14 02:22:40;;;;;;;12.23;7.13;;;11.40;91.10;;;;;;4973718;28;20553;-73
2021/10/14 02:25:08;;;;;;;12.40;6.00;;;11.40;91.20;;;;;;4974902;28;20483;-73
2021/10/14 02:27:34;;;;;;;12.53;6.63;;;11.40;91.10;;;;;;4987552;28;20168;-73
2021/10/14 02:30:01;;;;;;;16.43;6.90;;;11.40;91.10;;;;;;4993980;28;20448;-73
2021/10/14 02:32:26;;;;;;;8.60;6.17;;;11.40;91.20;;;;;;4993356;28;20322;-73
2021/10/14 02:34:54;;;;;;;12.97;6.70;;;11.40;91.20;;;;;;4988589;28;20478;-74
2021/10/14 02:37:20;;;;;;;12.90;7.20;;;11.40;91.30;;;;;;4974937;28;20164;-73
2021/10/14 02:39:45;;;;;;;9.63;6.33;;;11.40;91.30;;;;;;4974494;28;20937;-74
2021/10/14 02:42:11;;;;;;;11.77;7.00;;;11.40;91.30;;;;;;4973532;28;20404;-73
2021/10/14 02:44:37;;;;;;;10.07;6.10;;;11.40;91.30;;;;;;4974523;28;20758;-73
2021/10/14 02:47:02;;;;;;;14.90;6.33;;;11.40;91.30;;;;;;4974540;28;20251;-73
2021/10/14 02:49:28;;;;;;;17.43;6.20;;;11.40;91.30;;;;;;4989222;28;20662;-73
2021/10/14 02:51:54;;;;;;;13.87;7.40;;;11.40;91.30;;;;;;4975196;28;20195;-73
2021/10/14 02:54:19;;;;;;;20.90;7.70;;;11.40;91.20;;;;;;4974502;28;20197;-73
2021/10/14 02:56:45;;;;;;;18.23;7.60;;;11.40;91.30;;;;;;4973102;28;20189;-73
2021/10/14 02:59:11;;;;;;;9.77;7.10;;;11.40;91.30;;;;;;4974499;28;20172;-72
2021/10/14 03:01:37;;;;;;;10.27;6.70;;;11.40;91.30;;;;;;4974356;28;20172;-73
2021/10/14 03:04:03;;;;;;;14.10;7.60;;;11.40;91.30;;;;;;4975152;28;20200;-74
2021/10/14 03:06:29;;;;;;;11.07;7.33;;;11.40;91.00;;;;;;4976040;28;20450;-72
2021/10/14 03:08:55;;;;;;;8.83;6.00;;;11.40;91.00;;;;;;4974472;28;20415;-73
2021/10/14 03:11:20;;;;;;;10.30;5.80;;;11.40;90.90;;;;;;4974526;28;20239;-73
2021/10/14 03:13:46;;;;;;;14.43;6.93;;;11.40;90.90;;;;;;4974453;28;20720;-74
2021/10/14 03:16:12;;;;;;;11.30;5.90;;;11.40;91.20;;;;;;4974908;28;20173;-73
2021/10/14 03:18:38;;;;;;;10.90;5.73;;;11.40;90.80;;;;;;4975045;28;20424;-74
2021/10/14 03:21:03;;;;;;;9.67;6.10;;;11.40;90.60;;;;;;4976090;28;20507;-72
2021/10/14 03:23:29;;;;;;;14.23;6.80;;;11.40;90.80;;;;;;4965478;28;20452;-73
2021/10/14 03:25:55;;;;;;;19.37;8.33;;;11.40;90.80;;;;;;4985356;28;20235;-72
2021/10/14 03:28:20;;;;;;;12.03;6.97;;;11.40;90.80;;;;;;4994501;28;20184;-72
2021/10/14 03:30:46;;;;;;;14.00;6.57;;;11.40;91.00;;;;;;5009012;28;20199;-73
2021/10/14 03:33:12;;;;;;;13.77;6.60;;;11.40;91.10;;;;;;4993467;28;20174;-73
2021/10/14 03:35:37;;;;;;;11.00;6.53;;;11.40;91.20;;;;;;4992923;28;20179;-74
2021/10/14 03:38:03;;;;;;;17.90;6.90;;;11.30;91.30;;;;;;4991815;28;20172;-72
2021/10/14 03:40:29;;;;;;;11.97;7.03;;;11.30;91.50;;;;;;4987198;28;20178;-72
2021/10/14 03:42:55;;;;;;;14.67;6.73;;;11.30;91.70;;;;;;4988771;28;20176;-72
2021/10/14 03:45:21;;;;;;;11.40;6.43;;;11.20;91.80;;;;;;4974935;28;20490;-73
2021/10/14 03:47:47;;;;;;;14.57;7.83;;;11.20;91.90;;;;;;4972468;28;20180;-73
2021/10/14 03:50:13;;;;;;;12.00;7.13;;;11.20;91.90;;;;;;4973441;28;20763;-73
2021/10/14 03:52:39;;;;;;;10.90;7.10;;;11.20;92.00;;;;;;4973304;28;20435;-72
2021/10/14 03:55:06;;;;;;;16.37;7.60;;;11.20;91.90;;;;;;4973795;28;20412;-72
2021/10/14 03:57:31;;;;;;;14.03;6.97;;;11.10;91.90;;;;;;4972104;28;20462;-73
2021/10/14 03:59:57;;;;;;;13.63;7.33;;;11.20;92.10;;;;;;4971732;28;20926;-73
2021/10/14 04:02:23;;;;;;;18.17;7.93;;;11.20;92.00;;;;;;4972369;28;20227;-73
2021/10/14 04:04:48;;;;;;;14.30;7.80;;;11.20;92.00;;;;;;4973308;28;20475;-73
2021/10/14 04:07:14;;;;;;;11.80;7.50;;;11.20;91.90;;;;;;4985884;28;20200;-73
2021/10/14 04:09:40;;;;;;;11.77;6.10;;;11.20;91.90;;;;;;5007698;28;20221;-73
2021/10/14 04:12:06;;;;;;;10.27;7.07;;;11.20;91.80;;;;;;4994144;28;20261;-73
2021/10/14 04:14:31;;;;;;;22.13;6.23;;;11.10;91.80;;;;;;4993721;28;20276;-73
2021/10/14 04:16:57;;;;;;;15.23;6.53;;;11.10;91.80;;;;;;4993069;28;20179;-73
2021/10/14 04:19:23;;;;;;;15.80;8.87;;;11.10;91.90;;;;;;4991504;28;20226;-73
2021/10/14 04:21:49;;;;;;;11.00;7.47;;;11.10;91.90;;;;;;4990964;28;20176;-73
2021/10/14 04:24:18;;;;;;;11.23;6.20;;;11.20;91.90;;;;;;4990593;28;20203;-73
2021/10/14 04:26:44;;;;;;;12.20;6.77;;;11.20;91.80;;;;;;5007697;28;20861;-73
2021/10/14 04:29:10;;;;;;;14.27;6.43;;;11.20;91.70;;;;;;4990530;28;20455;-73
2021/10/14 04:31:36;;;;;;;9.40;5.90;;;11.20;91.70;;;;;;4977385;28;20960;-73
2021/10/14 04:34:02;;;;;;;13.20;7.17;;;11.30;91.70;;;;;;4971744;28;20280;-75
2021/10/14 04:36:28;;;;;;;15.83;7.27;;;11.20;91.80;;;;;;4973675;28;20519;-72
2021/10/14 04:38:55;;;;;;;14.43;6.23;;;11.20;91.80;;;;;;4980780;28;20179;-74
2021/10/14 04:41:21;;;;;;;15.07;6.47;;;11.20;92.00;;;;;;4972601;28;20450;-74
2021/10/14 04:43:46;;;;;;;14.63;7.03;;;11.10;92.10;;;;;;5001020;23;20412;-76
2021/10/14 04:46:12;;;;;;;12.43;7.20;;;11.10;92.40;;;;;;5027815;28;20170;-76
2021/10/14 04:48:37;;;;;;;16.77;6.30;;;11.10;92.60;;;;;;5031591;28;20261;-76
2021/10/14 04:51:03;;;;;;;12.60;6.40;;;11.10;92.90;;;;;;5030942;28;20198;-76
2021/10/14 04:53:29;;;;;;;9.80;5.87;;;11.00;92.90;;;;;;5031717;28;20166;-76
2021/10/14 04:55:55;;;;;;;9.30;7.00;;;11.00;92.90;;;;;;5030116;28;20182;-75
2021/10/14 04:58:20;;;;;;;16.33;7.07;;;11.00;93.00;;;;;;5030691;28;20166;-75
2021/10/14 05:00:46;;;;;;;12.97;6.60;;;11.00;93.00;;;;;;5030544;28;20225;-75
2021/10/14 05:03:12;;;;;;;11.37;7.03;;;11.00;93.10;;;;;;5031754;28;20178;-74
2021/10/14 05:05:37;;;;;;;14.33;6.77;;;11.00;93.10;;;;;;5029657;28;20205;-75
2021/10/14 05:08:03;;;;;;;17.33;6.77;;;11.00;93.30;;;;;;5030397;28;20607;-75
2021/10/14 05:10:31;;;;;;;11.83;6.00;;;11.00;93.30;;;;;;5028975;28;20247;-75
2021/10/14 05:12:56;;;;;;;11.23;6.67;;;11.10;93.30;;;;;;5030295;28;20173;-75
2021/10/14 05:15:22;;;;;;;9.70;6.60;;;11.10;93.30;;;;;;5031019;28;20425;-75
2021/10/14 05:17:48;;;;;;;13.97;7.00;;;11.10;93.50;;;;;;5030240;28;20212;-75
2021/10/14 05:20:13;;;;;;;12.03;6.57;;;11.20;93.10;;;;;;5027956;28;20166;-75
2021/10/14 05:22:39;;;;;;;19.00;6.77;;;11.20;93.00;;;;;;5027707;28;20165;-74
2021/10/14 05:25:05;;;;;;;14.93;6.73;;;11.20;92.90;;;;;;5026472;28;20695;-76
2021/10/14 05:27:31;;;;;;;15.30;6.73;;;11.20;92.70;;;;;;5028000;28;20253;-75
2021/10/14 05:29:57;;;;;;;14.67;6.53;;;11.10;92.60;;;;;;5027691;28;20420;-75
2021/10/14 05:32:24;;;;;;;12.10;5.47;;;11.10;92.60;;;;;;5022670;28;20457;-76
2021/10/14 05:34:49;;;;;;;12.60;6.80;;;11.20;92.50;;;;;;5026047;28;20191;-74
2021/10/14 05:37:15;;;;;;;17.10;6.40;;;11.20;92.40;;;;;;5015672;28;20410;-74
2021/10/14 05:39:41;;;;;;;11.40;6.57;;;11.20;92.30;;;;;;5014151;28;20680;-75
2021/10/14 05:42:06;;;;;;;10.33;7.67;;;11.20;92.10;;;;;;5010607;28;20175;-75
2021/10/14 05:44:32;;;;;;;16.53;7.07;;;11.10;92.00;;;;;;5011020;28;20198;-75
2021/10/14 05:46:58;;;;;;;10.43;6.87;;;11.20;91.90;;;;;;5012045;28;20217;-75
2021/10/14 05:49:23;;;;;;;9.63;6.20;;;11.20;91.70;;;;;;5012436;28;20656;-76
2021/10/14 05:51:49;;;;;;;12.70;7.73;;;11.20;91.70;;;;;;5012509;28;20278;-75
2021/10/14 05:54:14;;;;;;;15.23;7.90;;;11.20;91.50;;;;;;5012660;28;20201;-75
2021/10/14 05:56:40;;;;;;;23.43;8.73;;;11.20;91.60;;;;;;5011552;28;20198;-75
2021/10/14 05:59:06;;;;;;;9.07;5.83;;;11.30;91.50;;;;;;5011723;28;20167;-75
2021/10/14 06:01:31;;;;;;;14.63;7.50;;;11.30;91.40;;;;;;5011161;28;20634;-75
2021/10/14 06:03:57;;;;;;;15.23;7.27;;;11.30;91.30;;;;;;5011380;28;20189;-75
2021/10/14 06:06:24;;;;;;;14.97;7.73;;;11.30;91.10;;;;;;5011357;28;20171;-75
2021/10/14 06:08:50;;;;;;;14.73;8.13;;;11.30;91.10;;;;;;5010930;28;20171;-75
2021/10/14 06:11:16;;;;;;;19.00;7.37;;;11.30;91.00;;;;;;5010560;28;20503;-75
2021/10/14 06:13:41;;;;;;;14.17;7.50;;;11.30;91.00;;;;;;5010983;28;20904;-75
2021/10/14 06:16:07;;;;;;;14.63;8.23;;;11.30;90.90;;;;;;5012055;28;20163;-75
2021/10/14 06:18:34;;;;;;;11.53;7.53;;;11.40;91.00;;;;;;5010970;28;20604;-76
2021/10/14 06:21:00;;;;;;;24.20;13.90;;;11.40;90.90;;;;;;5026084;28;20424;-75
2021/10/14 06:23:26;;;;;;;23.20;8.70;;;11.40;90.90;;;;;;5029370;28;20425;-77
2021/10/14 06:25:53;;;;;;;14.47;8.63;;;11.40;90.90;;;;;;5030437;28;20496;-76
2021/10/14 06:28:19;;;;;;;14.13;7.97;;;11.40;90.90;;;;;;5030481;28;20500;-75
2021/10/14 06:30:44;;;;;;;14.30;8.40;;;11.40;90.80;;;;;;5030565;28;20540;-75
2021/10/14 06:33:10;;;;;;;15.20;7.50;;;11.40;90.70;;;;;;5030385;28;20167;-74
2021/10/14 06:35:36;;;;;;;13.77;7.33;;;11.40;90.60;;;;;;5029395;28;20206;-75
2021/10/14 06:38:01;;;;;;;17.10;8.90;;;11.40;90.60;;;;;;5030642;28;20628;-75
2021/10/14 06:40:27;;;;;;;15.60;7.60;;;11.40;90.70;;;;;;5029152;28;20628;-75
2021/10/14 06:42:53;;;;;;;14.83;7.87;;;11.50;90.60;;;;;;5030581;28;20194;-76
2021/10/14 06:45:19;;;;;;;12.27;6.20;;;11.40;90.60;;;;;;5027864;28;20213;-75
2021/10/14 06:47:45;;;;;;;12.33;6.93;;;11.50;90.70;;;;;;5030179;28;20171;-75
2021/10/14 06:50:10;;;;;;;16.53;8.07;;;11.50;90.70;;;;;;5030114;28;20394;-75
2021/10/14 06:52:36;;;;;;;18.33;6.47;;;11.50;90.80;;;;;;5030306;28;20167;-75
2021/10/14 06:55:02;;;;;;;20.83;7.50;;;11.50;90.80;;;;;;5030241;28;20194;-75
2021/10/14 06:57:28;;;;;;;13.17;7.70;;;11.50;90.90;;;;;;5031916;28;20177;-75
2021/10/14 06:59:54;;;;;;;11.90;7.07;;;11.50;91.00;;;;;;5034105;28;20413;-75
2021/10/14 07:02:19;;;;;;;18.20;7.77;;;11.60;91.30;;;;;;5034172;28;20208;-75
2021/10/14 07:04:45;;;;;;;20.03;8.13;;;11.60;91.50;;;;;;5034143;28;20198;-75
2021/10/14 07:07:10;;;;;;;15.63;6.60;;;11.60;91.20;;;;;;5032915;28;20178;-76
2021/10/14 07:09:36;;;;;;;13.67;7.80;;;11.60;91.00;;;;;;5034264;28;20648;-76
2021/10/14 07:12:11;;;;;;;11.40;7.20;;;11.60;91.00;;;;;;5033754;28;20293;-75
2021/10/14 07:14:41;;;;;;;11.60;6.77;;;11.60;90.90;;;;;;5033376;28;20236;-76
2021/10/14 07:17:06;;;;;;;17.03;8.53;;;11.60;91.00;;;;;;5033781;28;20423;-75
2021/10/14 07:19:33;;;;;;;8.70;6.47;;;11.60;91.10;;;;;;5018304;28;20420;-75
2021/10/14 07:22:01;;;;;;;17.30;8.37;;;11.60;91.20;;;;;;5032086;28;20466;-75
2021/10/14 07:24:27;;;;;;;14.07;7.03;;;11.60;91.20;;;;;;5031936;28;20437;-75
2021/10/14 07:26:53;;;;;;;11.57;8.33;;;11.60;91.20;;;;;;5033179;28;20460;-75
2021/10/14 07:29:19;;;;;;;14.40;8.30;;;11.60;91.30;;;;;;5033432;28;20417;-76
2021/10/14 07:31:44;;;;;;;16.27;7.53;;;11.60;91.20;;;;;;5031547;28;20464;-76
2021/10/14 07:34:10;;;;;;;23.70;15.37;;;11.70;91.30;;;;;;5032092;28;20660;-75
2021/10/14 07:36:36;;;;;;;10.23;7.20;;;11.70;91.30;;;;;;5033393;28;20232;-75
2021/10/14 07:39:02;;;;;;;19.13;8.80;;;11.70;91.40;;;;;;5033217;28;20621;-75
2021/10/14 07:41:28;;;;;;;17.93;9.77;;;11.70;91.40;;;;;;5032643;28;20605;-75
2021/10/14 07:43:55;;;;;;;12.43;8.00;;;11.70;91.50;;;;;;5032608;28;20466;-75
2021/10/14 07:46:21;;;;;;;10.60;8.27;;;11.70;91.50;;;;;;5032029;28;20429;-77
2021/10/14 07:48:46;;;;;;;19.30;9.63;;;11.80;91.40;;;;;;5032049;28;20424;-75
2021/10/14 07:51:13;;;;;;;17.67;9.00;;;11.80;91.50;;;;;;5032600;28;20560;-75
2021/10/14 07:53:40;;;;;;;14.33;9.60;;;11.80;91.60;;;;;;5034341;28;20587;-76
2021/10/14 07:56:05;;;;;;;12.83;7.93;;;11.80;91.70;;;;;;5036451;28;20436;-75
2021/10/14 07:58:32;;;;;;;13.37;8.70;;;11.90;91.70;;;;;;5045878;28;20397;-75
2021/10/14 08:00:57;;;;;;;17.30;8.70;;;12.00;91.70;;;;;;5047417;28;20181;-75
2021/10/14 08:03:23;;;;;;;15.63;8.20;;;11.90;91.50;;;;;;5040025;28;20401;-76
2021/10/14 08:05:49;;;;;;;16.37;10.77;;;12.00;91.70;;;;;;5034053;28;20289;-75
2021/10/14 08:08:14;;;;;;;14.80;7.90;;;12.00;91.70;;;;;;5032516;28;20163;-76
2021/10/14 08:10:40;;;;;;;15.37;8.23;;;12.10;91.60;;;;;;5031300;28;20241;-76
2021/10/14 08:13:13;;;;;;;16.40;8.33;;;12.10;91.50;;;;;;5032684;28;20162;-76
2021/10/14 08:15:40;;;;;;;14.30;8.50;;;12.10;91.50;;;;;;5031232;28;20425;-76
2021/10/14 08:18:05;;;;;;;15.03;8.57;;;12.10;91.50;;;;;;5032704;28;20409;-76
2021/10/14 08:20:33;;;;;;;14.77;10.20;;;12.10;91.60;;;;;;5030982;28;20432;-75
2021/10/14 08:23:00;;;;;;;15.67;8.63;;;12.10;91.50;;;;;;5032353;28;20178;-76
2021/10/14 08:25:25;;;;;;;20.97;8.87;;;12.10;91.40;;;;;;5032016;28;20585;-75
2021/10/14 08:27:51;;;;;;;16.67;8.50;;;12.10;91.50;;;;;;5032230;28;20507;-77
2021/10/14 08:30:17;;;;;;;20.90;9.20;;;12.10;91.40;;;;;;5031989;28;20592;-75
2021/10/14 08:32:42;;;;;;;21.97;9.10;;;12.10;91.60;;;;;;5032602;28;20217;-76
2021/10/14 08:35:12;;;;;;;18.67;10.50;;;12.10;91.90;;;;;;5032909;28;20194;-75
2021/10/14 08:37:39;;;;;;;16.67;8.80;;;12.10;91.80;;;;;;5032854;28;20166;-76
2021/10/14 08:40:05;;;;;;;17.83;8.13;;;12.10;91.70;;;;;;5032447;28;20424;-76
2021/10/14 08:42:32;;;;;;;15.93;8.03;;;12.10;91.80;;;;;;5031620;28;20425;-77
2021/10/14 08:45:01;;;;;;;16.00;9.43;;;12.20;91.90;;;;;;5030326;28;20469;-76
2021/10/14 08:47:27;;;;;;;21.70;9.73;;;12.30;91.90;;;;;;5032805;28;20416;-75
2021/10/14 08:49:55;;;;;;;22.10;8.20;;;12.30;91.90;;;;;;5033127;28;20578;-76
2021/10/14 08:52:21;;;;;;;18.50;9.83;;;12.30;92.10;;;;;;5032942;28;20190;-75
2021/10/14 08:54:47;;;;;;;15.53;9.80;;;12.40;92.10;;;;;;5032806;28;20447;-76
2021/10/14 08:57:12;;;;;;;15.00;9.40;;;12.40;92.40;;;;;;5031329;28;20198;-75
2021/10/14 08:59:38;;;;;;;16.33;9.97;;;12.50;92.00;;;;;;5032298;28;20170;-75
2021/10/14 09:02:10;;;;;;;18.80;9.60;;;12.60;91.90;;;;;;5032169;28;20257;-75
2021/10/14 09:05:06;;;;;;;15.70;9.93;;;12.60;91.80;;;;;;5031879;28;20213;-76
2021/10/14 09:07:33;;;;;;;21.13;12.37;;;12.70;91.60;;;;;;5031154;28;20413;-76
2021/10/14 09:10:01;;;;;;;33.33;12.10;;;12.70;91.60;;;;;;5031716;28;20421;-76
2021/10/14 09:12:36;;;;;;;17.80;10.40;;;12.70;91.30;;;;;;5032275;28;20460;-75
2021/10/14 09:15:12;;;;;;;24.47;12.50;;;12.70;91.70;;;;;;5031832;28;20479;-75
2021/10/14 09:17:37;;;;;;;26.07;11.93;;;12.80;91.60;;;;;;5030726;28;20486;-76
2021/10/14 09:20:33;;;;;;;17.27;12.20;;;12.80;91.40;;;;;;5034310;28;20408;-76
2021/10/14 09:23:12;;;;;;;18.77;10.50;;;12.80;91.20;;;;;;5030198;28;20163;-76
2021/10/14 09:25:49;;;;;;;18.53;10.23;;;12.90;91.30;;;;;;5031490;28;20468;-76
2021/10/14 09:28:18;;;;;;;22.20;11.60;;;12.90;91.20;;;;;;5031811;28;20419;-76
2021/10/14 09:30:56;;;;;;;17.87;11.00;;;12.90;91.20;;;;;;5029935;28;20511;-75
2021/10/14 09:33:30;;;;;;;18.60;9.63;;;12.90;91.40;;;;;;5030971;28;20419;-75
2021/10/14 09:36:08;;;;;;;15.33;11.07;;;12.90;91.50;;;;;;5031508;28;20414;-77
2021/10/14 09:38:34;;;;;;;29.33;18.63;;;12.90;91.80;;;;;;5031598;28;20804;-75
2021/10/14 09:41:07;;;;;;;20.57;12.13;;;12.80;92.00;;;;;;5031133;28;20417;-77
2021/10/14 09:43:33;;;;;;;20.47;12.27;;;12.80;92.40;;;;;;5030788;28;20367;-75
2021/10/14 09:45:59;;;;;;;20.43;12.10;;;12.90;92.60;;;;;;5031330;28;20413;-75
2021/10/14 09:48:25;;;;;;;25.93;11.53;;;12.90;92.80;;;;;;5031281;28;20475;-75
2021/10/14 09:50:53;;;;;;;17.10;11.80;;;13.00;92.80;;;;;;5031001;28;20449;-76
2021/10/14 09:53:21;;;;;;;20.77;12.17;;;13.10;92.80;;;;;;5031308;28;20177;-76
2021/10/14 09:55:48;;;;;;;19.07;11.83;;;13.20;92.50;;;;;;5031079;28;20425;-75
2021/10/14 09:58:16;;;;;;;19.73;12.30;;;13.20;92.60;;;;;;5030916;28;20429;-75
2021/10/14 10:00:43;;;;;;;23.13;12.67;;;13.30;92.60;;;;;;5029511;28;20415;-76
2021/10/14 10:03:13;;;;;;;22.83;10.93;;;13.40;92.10;;;;;;5029803;28;20787;-76
2021/10/14 10:05:39;;;;;;;19.97;10.43;;;13.50;92.20;;;;;;5012937;28;20958;-76
2021/10/14 10:08:10;;;;;;;17.50;12.20;;;13.60;91.50;;;;;;5029541;28;20457;-76
2021/10/14 10:10:38;;;;;;;27.07;16.47;;;13.70;92.10;;;;;;5030444;28;20183;-75
2021/10/14 10:13:04;;;;;;;15.00;10.77;;;13.80;91.30;;;;;;5030913;28;20915;-76
2021/10/14 10:15:41;;;;;;;22.43;11.13;;;14.00;91.10;;;;;;5030579;28;20801;-75
2021/10/14 10:18:26;;;;;;;17.73;11.73;;;14.20;90.90;;;;;;5029613;28;21126;-76
2021/10/14 10:20:52;;;;;;;20.30;13.20;;;14.40;89.20;;;;;;5030696;28;20411;-76
2021/10/14 10:23:50;;;;;;;17.70;10.63;;;14.50;87.60;;;;;;5030757;28;20779;-76
2021/10/14 10:29:12;;;;;;;21.63;10.87;;;14.80;84.60;;;;;;5030763;28;20810;-76
2021/10/14 10:31:56;;;;;;;18.60;11.13;;;14.90;85.30;;;;;;5030872;28;20450;-75
2021/10/14 10:37:21;;;;;;;13.80;8.13;;;15.00;83.80;;;;;;5034775;28;20417;-75
2021/10/14 10:39:47;;;;;;;14.70;8.43;;;15.00;83.70;;;;;;5034025;28;20425;-76
2021/10/14 10:42:24;;;;;;;14.73;8.90;;;15.00;83.90;;;;;;5035922;28;20522;-76
2021/10/14 10:44:50;;;;;;;18.63;10.10;;;15.10;83.00;;;;;;5033983;28;20469;-76
2021/10/14 10:47:41;;;;;;;19.80;9.07;;;15.00;83.00;;;;;;5034510;28;20418;-75
2021/10/14 10:50:11;;;;;;;15.97;9.00;;;15.00;82.90;;;;;;5034207;28;20160;-75
2021/10/14 10:52:38;;;;;;;11.87;9.30;;;15.10;82.70;;;;;;5033105;28;20460;-75
2021/10/14 10:55:33;;;;;;;28.13;17.40;;;15.20;83.20;;;;;;5019702;28;20937;-75
2021/10/14 10:58:00;;;;;;;11.37;8.47;;;15.40;82.40;;;;;;5003816;28;20434;-75
2021/10/14 11:00:26;;;;;;;13.50;9.43;;;15.60;81.50;;;;;;5014685;28;20471;-75
2021/10/14 11:03:12;;;;;;;12.07;8.17;;;15.80;80.10;;;;;;5016292;28;20402;-75
2021/10/14 11:05:49;;;;;;;12.07;6.93;;;15.90;79.30;;;;;;5017052;28;20464;-75
2021/10/14 11:08:18;;;;;;;16.93;11.93;;;15.90;77.70;;;;;;5016340;28;20485;-75
2021/10/14 11:11:02;;;;;;;16.37;10.37;;;15.90;78.10;;;;;;5014715;28;20512;-75
2021/10/14 11:13:34;;;;;;;14.33;7.10;;;15.90;78.20;;;;;;5015050;28;20723;-75
2021/10/14 11:16:00;;;;;;;13.03;7.57;;;15.90;77.00;;;;;;5015816;28;20986;-76
2021/10/14 11:18:28;;;;;;;11.30;6.30;;;15.70;77.20;;;;;;5015602;28;20403;-76
2021/10/14 11:21:05;;;;;;;10.70;7.60;;;15.50;78.40;;;;;;5015651;28;20410;-78
2021/10/14 11:23:43;;;;;;;11.80;8.10;;;15.40;79.40;;;;;;5015773;28;20426;-77
2021/10/14 11:26:19;;;;;;;11.67;8.07;;;15.20;79.20;;;;;;5023708;28;20827;-75
2021/10/14 11:29:09;;;;;;;11.33;7.87;;;15.10;80.30;;;;;;5023843;28;20426;-75
2021/10/14 11:31:37;;;;;;;14.43;8.27;;;15.10;80.50;;;;;;5016069;28;20462;-74
2021/10/14 11:34:15;;;;;;;8.77;6.70;;;15.00;81.20;;;;;;5017088;28;20491;-77
2021/10/14 11:36:49;;;;;;;10.73;7.10;;;15.00;80.30;;;;;;5033675;28;20417;-76
2021/10/14 11:39:16;;;;;;;9.47;7.20;;;14.90;80.00;;;;;;5033712;28;20498;-75
2021/10/14 11:41:42;;;;;;;11.00;6.90;;;14.80;80.50;;;;;;5034828;28;20414;-77
2021/10/14 11:44:10;;;;;;;12.27;6.87;;;14.70;80.80;;;;;;5033604;28;20902;-76
2021/10/14 11:46:38;;;;;;;9.23;6.70;;;14.70;80.90;;;;;;5034682;28;20180;-76
2021/10/14 11:49:09;;;;;;;15.60;7.37;;;14.70;81.00;;;;;;5036392;28;20422;-76
2021/10/14 11:51:35;;;;;;;16.70;8.47;;;14.70;80.90;;;;;;5034315;28;20456;-75
2021/10/14 11:54:07;;;;;;;15.70;7.43;;;14.70;80.80;;;;;;5034339;28;20433;-76
2021/10/14 11:56:43;;;;;;;10.53;6.43;;;14.70;81.10;;;;;;5037049;28;20402;-76
2021/10/14 11:59:09;;;;;;;11.03;7.67;;;14.80;80.50;;;;;;5032161;28;20420;-75
2021/10/14 12:01:49;;;;;;;12.03;7.80;;;14.80;80.50;;;;;;5032965;28;20405;-76
2021/10/14 12:04:20;;;;;;;12.90;7.10;;;14.80;80.40;;;;;;5033764;28;20568;-76
2021/10/14 12:06:48;;;;;;;12.30;7.67;;;14.80;80.10;;;;;;5033186;28;20417;-77
2021/10/14 12:09:15;;;;;;;10.60;6.80;;;14.70;80.20;;;;;;5033299;28;20435;-75
2021/10/14 12:11:41;;;;;;;10.23;6.50;;;14.70;79.80;;;;;;5032362;28;20477;-75
2021/10/14 12:14:07;;;;;;;11.33;6.23;;;14.70;80.20;;;;;;5033197;28;20433;-76
2021/10/14 12:16:33;;;;;;;11.30;8.00;;;14.70;80.10;;;;;;5032915;28;20436;-76
2021/10/14 12:19:14;;;;;;;10.67;6.43;;;14.70;80.50;;;;;;5032775;28;20170;-75
2021/10/14 12:21:41;;;;;;;14.60;6.73;;;14.70;80.30;;;;;;5032538;28;20443;-76
2021/10/14 12:24:14;;;;;;;13.13;7.30;;;14.80;80.20;;;;;;5033625;28;20918;-76
2021/10/14 12:26:48;;;;;;;17.03;7.23;;;14.80;79.60;;;;;;5033744;28;20790;-75
2021/10/14 12:29:33;;;;;;;12.80;8.47;;;14.80;79.70;;;;;;5033750;28;20411;-76
2021/10/14 12:32:08;;;;;;;12.40;7.03;;;14.90;80.50;;;;;;5031503;28;20981;-76
2021/10/14 12:34:57;;;;;;;13.50;7.47;;;15.10;79.80;;;;;;5033112;28;20414;-75
2021/10/14 12:37:33;;;;;;;9.40;6.53;;;15.30;79.40;;;;;;5033454;28;20404;-75
2021/10/14 12:40:29;;;;;;;14.80;9.00;;;15.40;78.40;;;;;;5032683;28;20420;-76
2021/10/14 12:43:00;;;;;;;7.27;5.60;;;15.50;76.80;;;;;;5024598;28;20429;-76
2021/10/14 12:48:15;;;;;;;10.90;5.30;;;15.70;76.50;;;;;;5014005;28;20440;-76